createdAt,value
2019-03-23T00:27:23.815Z,9.46
2019-03-23T00:28:19.235Z,9.43
2019-03-23T00:29:18.510Z,9.40
2019-03-23T00:30:18.571Z,9.46
2019-03-23T00:31:18.655Z,9.39
2019-03-23T00:32:18.597Z,9.24
2019-03-23T00:33:19.759Z,9.17
2019-03-23T00:34:18.669Z,9.17
2019-03-23T00:35:22.010Z,9.10
2019-03-23T00:36:18.445Z,9.11
2019-03-23T00:37:18.627Z,9.05
2019-03-23T00:38:18.508Z,9.13
2019-03-23T00:39:18.540Z,9.08
2019-03-23T00:40:20.123Z,9.05
2019-03-23T00:41:18.610Z,8.98
2019-03-23T00:42:18.454Z,8.84
2019-03-23T00:43:18.807Z,8.87
2019-03-23T00:44:18.633Z,8.84
2019-03-23T00:45:18.601Z,8.76
2019-03-23T00:46:30.522Z,8.83
2019-03-23T00:47:18.420Z,8.80
2019-03-23T00:48:18.404Z,8.89
2019-03-23T00:49:18.294Z,8.83
2019-03-23T00:50:18.627Z,8.89
2019-03-23T00:51:18.334Z,8.79
2019-03-23T00:52:18.498Z,8.73
2019-03-23T00:53:18.513Z,8.73
2019-03-23T00:54:18.321Z,8.70
2019-03-23T00:55:18.229Z,8.62
2019-03-23T00:56:18.712Z,8.65
2019-03-23T00:57:18.257Z,8.56
2019-03-23T00:58:18.203Z,8.48
2019-03-23T00:59:18.170Z,8.58
2019-03-23T01:00:18.173Z,8.52
2019-03-23T01:01:18.153Z,8.44
2019-03-23T01:02:18.150Z,8.26
2019-03-23T01:03:18.164Z,8.26
2019-03-23T01:04:18.115Z,8.02
2019-03-23T01:05:18.149Z,7.90
2019-03-23T01:06:18.239Z,7.50
2019-03-23T01:07:18.124Z,7.34
2019-03-23T01:08:19.730Z,7.20
2019-03-23T01:09:18.054Z,7.16
2019-03-23T01:10:18.085Z,7.16
2019-03-23T01:11:18.197Z,7.20
2019-03-23T01:12:18.200Z,7.23
2019-03-23T01:13:18.934Z,7.16
2019-03-23T01:14:18.578Z,7.30
2019-03-23T01:15:18.470Z,7.20
2019-03-23T01:18:23.562Z,7.10
2019-03-23T01:19:23.544Z,7.10
2019-03-23T01:20:23.486Z,7.13
2019-03-23T01:21:23.514Z,7.12
2019-03-23T01:22:23.418Z,7.16
2019-03-23T01:23:23.377Z,7.21
2019-03-23T01:24:23.315Z,7.25
2019-03-23T01:25:23.293Z,7.30
2019-03-23T01:26:23.294Z,7.34
2019-03-23T01:27:23.304Z,7.21
2019-03-23T01:28:23.322Z,7.37
2019-03-23T01:29:23.308Z,7.35
2019-03-23T01:30:23.262Z,7.39
2019-03-23T01:31:23.224Z,7.40
2019-03-23T01:32:23.211Z,7.43
2019-03-23T01:33:23.215Z,7.24
2019-03-23T01:34:23.255Z,7.43
2019-03-23T01:35:23.192Z,7.34
2019-03-23T01:36:23.178Z,7.40
2019-03-23T01:37:23.164Z,7.40
2019-03-23T01:38:23.163Z,7.43
2019-03-23T01:39:23.143Z,7.34
2019-03-23T01:40:23.258Z,7.31
2019-03-23T01:41:23.134Z,7.32
2019-03-23T01:42:23.094Z,7.30
2019-03-23T01:43:23.109Z,7.28
2019-03-23T01:44:23.077Z,7.21
2019-03-23T01:45:23.108Z,7.15
2019-03-23T01:46:23.062Z,7.20
2019-03-23T01:47:23.050Z,7.30
2019-03-23T01:48:23.027Z,7.27
2019-03-23T01:49:23.047Z,7.16
2019-03-23T01:50:23.077Z,7.30
2019-03-23T01:51:23.011Z,7.15
2019-03-23T01:52:23.144Z,7.17
2019-03-23T01:53:23.021Z,7.13
2019-03-23T01:54:22.965Z,7.17
2019-03-23T01:55:23.002Z,7.09
2019-03-23T01:56:22.948Z,7.16
2019-03-23T01:57:23.018Z,7.13
2019-03-23T01:58:22.937Z,7.15
2019-03-23T01:59:22.918Z,7.13
2019-03-23T02:00:23.334Z,7.17
2019-03-23T02:01:22.895Z,7.15
2019-03-23T02:02:22.917Z,6.98
2019-03-23T02:03:22.875Z,6.98
2019-03-23T02:04:22.904Z,6.91
2019-03-23T02:05:22.851Z,6.89
2019-03-23T02:06:22.953Z,6.85
2019-03-23T02:07:22.831Z,6.84
2019-03-23T02:08:22.826Z,6.88
2019-03-23T02:09:22.843Z,6.84
2019-03-23T02:10:22.789Z,6.85
2019-03-23T02:11:22.783Z,6.80
2019-03-23T02:12:22.821Z,6.79
2019-03-23T02:13:22.763Z,6.76
2019-03-23T02:14:22.763Z,6.76
2019-03-23T02:15:22.747Z,6.77
2019-03-23T02:16:22.744Z,6.80
2019-03-23T02:17:22.753Z,6.79
2019-03-23T02:18:22.745Z,6.74
2019-03-23T02:19:22.687Z,6.71
2019-03-23T02:20:22.679Z,6.69
2019-03-23T02:21:22.670Z,6.73
2019-03-23T02:22:22.712Z,6.67
2019-03-23T02:23:22.653Z,6.67
2019-03-23T02:24:22.634Z,6.66
2019-03-23T02:25:22.645Z,6.69
2019-03-23T02:26:22.611Z,6.71
2019-03-23T02:27:22.642Z,6.73
2019-03-23T02:28:22.668Z,6.64
2019-03-23T02:29:22.597Z,6.62
2019-03-23T02:30:22.582Z,6.64
2019-03-23T02:31:22.558Z,6.69
2019-03-23T02:32:22.605Z,6.54
2019-03-23T02:33:22.601Z,6.51
2019-03-23T02:34:22.577Z,6.51
2019-03-23T02:35:22.518Z,6.51
2019-03-23T02:36:22.621Z,6.56
2019-03-23T02:37:27.626Z,6.58
2019-03-23T02:38:23.520Z,6.58
2019-03-23T02:39:22.514Z,6.55
2019-03-23T02:40:22.460Z,6.55
2019-03-23T02:41:22.454Z,6.56
2019-03-23T02:42:22.450Z,6.52
2019-03-23T02:43:22.472Z,6.48
2019-03-23T02:44:22.461Z,6.54
2019-03-23T02:45:22.436Z,6.59
2019-03-23T02:46:22.401Z,6.58
2019-03-23T02:47:22.383Z,6.69
2019-03-23T02:48:22.429Z,6.61
2019-03-23T02:49:22.366Z,6.52
2019-03-23T02:50:22.359Z,6.58
2019-03-23T02:51:22.360Z,6.56
2019-03-23T02:52:22.447Z,6.58
2019-03-23T02:53:22.359Z,6.54
2019-03-23T02:54:22.358Z,6.58
2019-03-23T02:55:22.298Z,6.52
2019-03-23T02:56:22.296Z,6.56
2019-03-23T02:57:22.283Z,6.52
2019-03-23T02:58:22.326Z,6.52
2019-03-23T02:59:22.301Z,6.37
2019-03-23T03:00:22.250Z,6.31
2019-03-23T03:01:22.242Z,6.22
2019-03-23T03:02:22.219Z,6.14
2019-03-23T03:03:22.238Z,6.18
2019-03-23T03:04:22.284Z,6.30
2019-03-23T03:05:22.232Z,6.36
2019-03-23T03:06:22.200Z,6.46
2019-03-23T03:07:22.173Z,6.46
2019-03-23T03:08:22.161Z,6.48
2019-03-23T03:09:22.211Z,6.52
2019-03-23T03:10:22.194Z,6.52
2019-03-23T03:11:22.157Z,6.52
2019-03-23T03:12:22.171Z,6.33
2019-03-23T03:13:22.117Z,6.30
2019-03-23T03:14:22.137Z,6.28
2019-03-23T03:15:22.131Z,6.28
2019-03-23T03:16:22.067Z,6.25
2019-03-23T03:17:22.084Z,6.27
2019-03-23T03:18:22.084Z,6.46
2019-03-23T03:19:22.054Z,6.36
2019-03-23T03:20:22.158Z,6.33
2019-03-23T03:21:22.021Z,6.36
2019-03-23T03:22:22.019Z,6.27
2019-03-23T03:23:21.996Z,6.31
2019-03-23T03:24:21.984Z,6.31
2019-03-23T03:25:22.020Z,6.25
2019-03-23T03:26:21.959Z,6.18
2019-03-23T03:27:21.989Z,6.19
2019-03-23T03:28:21.979Z,6.17
2019-03-23T03:29:21.919Z,6.22
2019-03-23T03:30:22.010Z,6.17
2019-03-23T03:31:22.032Z,6.22
2019-03-23T03:32:21.899Z,6.25
2019-03-23T03:33:21.882Z,6.27
2019-03-23T03:34:21.913Z,6.31
2019-03-23T03:35:21.867Z,6.33
2019-03-23T03:36:21.907Z,6.37
2019-03-23T03:37:21.832Z,6.33
2019-03-23T03:38:21.851Z,6.34
2019-03-23T03:39:21.816Z,6.40
2019-03-23T03:40:21.854Z,6.40
2019-03-23T03:41:21.796Z,6.33
2019-03-23T03:42:21.869Z,6.46
2019-03-23T03:43:21.804Z,6.48
2019-03-23T03:44:21.773Z,6.40
2019-03-23T03:45:21.746Z,6.43
2019-03-23T03:46:21.768Z,6.48
2019-03-23T03:47:21.796Z,6.44
2019-03-23T03:48:21.786Z,6.51
2019-03-23T03:49:21.801Z,6.54
2019-03-23T03:50:21.701Z,6.46
2019-03-23T03:51:21.683Z,6.61
2019-03-23T03:52:22.715Z,6.67
2019-03-23T03:53:21.668Z,6.67
2019-03-23T03:54:21.708Z,6.66
2019-03-23T03:55:21.664Z,6.66
2019-03-23T03:56:21.650Z,6.59
2019-03-23T03:57:21.630Z,6.55
2019-03-23T03:58:21.794Z,6.61
2019-03-23T03:59:21.686Z,6.55
2019-03-23T04:00:21.639Z,6.54
2019-03-23T04:01:21.667Z,6.49
2019-03-23T04:02:21.605Z,6.52
2019-03-23T04:03:21.833Z,6.61
2019-03-23T04:04:21.549Z,6.56
2019-03-23T04:05:21.609Z,6.59
2019-03-23T04:06:21.673Z,6.71
2019-03-23T04:07:21.637Z,6.64
2019-03-23T04:08:21.697Z,6.61
2019-03-23T04:09:21.637Z,6.61
2019-03-23T04:10:21.551Z,6.67
2019-03-23T04:11:21.558Z,6.62
2019-03-23T04:12:21.542Z,6.56
2019-03-23T04:13:21.557Z,6.70
2019-03-23T04:14:21.496Z,6.64
2019-03-23T04:15:21.541Z,6.69
2019-03-23T04:16:21.469Z,6.66
2019-03-23T04:17:21.422Z,6.64
2019-03-23T04:18:21.481Z,6.62
2019-03-23T04:19:21.514Z,6.64
2019-03-23T04:20:21.470Z,6.59
2019-03-23T04:21:21.379Z,6.66
2019-03-23T04:22:21.467Z,6.67
2019-03-23T04:23:21.388Z,6.67
2019-03-23T04:24:21.508Z,6.71
2019-03-23T04:25:21.448Z,6.69
2019-03-23T04:26:21.336Z,6.73
2019-03-23T04:27:21.433Z,6.59
2019-03-23T04:28:21.326Z,6.69
2019-03-23T04:29:21.406Z,6.64
2019-03-23T04:30:21.311Z,6.69
2019-03-23T04:31:21.294Z,6.66
2019-03-23T04:32:21.255Z,6.67
2019-03-23T04:33:21.299Z,6.62
2019-03-23T04:34:21.241Z,6.69
2019-03-23T04:35:21.274Z,6.76
2019-03-23T04:36:21.210Z,6.73
2019-03-23T04:37:21.191Z,6.85
2019-03-23T04:38:22.926Z,6.73
2019-03-23T04:39:21.250Z,6.67
2019-03-23T04:40:21.158Z,6.62
2019-03-23T04:41:21.175Z,6.70
2019-03-23T04:42:21.120Z,6.79
2019-03-23T04:43:21.157Z,6.76
2019-03-23T04:44:21.121Z,6.73
2019-03-23T04:45:21.200Z,6.81
2019-03-23T04:46:21.123Z,6.79
2019-03-23T04:47:21.185Z,6.77
2019-03-23T04:48:21.175Z,6.79
2019-03-23T04:49:21.139Z,6.77
2019-03-23T04:50:21.115Z,6.81
2019-03-23T04:51:21.048Z,6.76
2019-03-23T04:52:21.188Z,6.77
2019-03-23T04:53:21.422Z,6.77
2019-03-23T04:54:21.049Z,6.80
2019-03-23T04:55:21.074Z,6.79
2019-03-23T04:56:21.240Z,6.84
2019-03-23T04:57:21.027Z,6.80
2019-03-23T04:58:21.070Z,6.76
2019-03-23T04:59:21.059Z,6.85
2019-03-23T05:00:21.060Z,6.88
2019-03-23T05:01:20.947Z,6.87
2019-03-23T05:02:20.923Z,6.77
2019-03-23T05:03:21.009Z,6.79
2019-03-23T05:04:20.935Z,6.87
2019-03-23T05:05:20.999Z,6.84
2019-03-23T05:06:20.919Z,6.80
2019-03-23T05:07:20.891Z,6.88
2019-03-23T05:08:20.868Z,6.85
2019-03-23T05:09:20.894Z,6.88
2019-03-23T05:10:20.814Z,6.85
2019-03-23T05:11:20.846Z,6.80
2019-03-23T05:12:20.941Z,6.85
2019-03-23T05:13:20.784Z,6.91
2019-03-23T05:14:20.780Z,6.84
2019-03-23T05:15:20.833Z,6.85
2019-03-23T05:16:20.852Z,6.89
2019-03-23T05:17:20.761Z,6.92
2019-03-23T05:18:20.765Z,6.92
2019-03-23T05:19:20.718Z,6.84
2019-03-23T05:20:20.834Z,6.85
2019-03-23T05:21:20.711Z,6.88
2019-03-23T05:22:20.777Z,6.84
2019-03-23T05:23:20.713Z,6.92
2019-03-23T05:24:20.759Z,6.85
2019-03-23T05:25:20.675Z,6.92
2019-03-23T05:26:20.662Z,6.97
2019-03-23T05:27:20.712Z,6.95
2019-03-23T05:28:20.651Z,6.92
2019-03-23T05:29:20.668Z,6.92
2019-03-23T05:30:20.613Z,6.92
2019-03-23T05:31:20.599Z,6.92
2019-03-23T05:32:20.616Z,6.97
2019-03-23T05:33:20.579Z,7.02
2019-03-23T05:34:21.207Z,6.95
2019-03-23T05:35:20.576Z,7.02
2019-03-23T05:36:20.582Z,7.02
2019-03-23T05:37:20.603Z,6.97
2019-03-23T05:38:20.678Z,7.03
2019-03-23T05:39:20.591Z,6.98
2019-03-23T05:40:20.525Z,7.06
2019-03-23T05:41:20.509Z,7.05
2019-03-23T05:42:20.632Z,7.06
2019-03-23T05:43:20.542Z,7.02
2019-03-23T05:44:20.485Z,7.03
2019-03-23T05:45:20.490Z,7.06
2019-03-23T05:46:20.525Z,6.98
2019-03-23T05:47:20.594Z,6.91
2019-03-23T05:48:20.430Z,7.12
2019-03-23T05:49:20.410Z,7.10
2019-03-23T05:50:20.393Z,7.03
2019-03-23T05:51:20.557Z,7.10
2019-03-23T05:52:20.435Z,7.07
2019-03-23T05:53:21.204Z,6.98
2019-03-23T05:54:20.348Z,7.12
2019-03-23T05:55:20.365Z,7.20
2019-03-23T05:56:20.319Z,7.02
2019-03-23T05:57:20.313Z,7.05
2019-03-23T05:58:20.331Z,7.06
2019-03-23T05:59:20.371Z,7.12
2019-03-23T06:00:20.303Z,7.20
2019-03-23T06:01:20.282Z,7.13
2019-03-23T06:02:20.260Z,7.17
2019-03-23T06:03:20.297Z,7.13
2019-03-23T06:04:20.278Z,7.16
2019-03-23T06:05:20.231Z,7.16
2019-03-23T06:06:20.215Z,7.23
2019-03-23T06:07:20.227Z,7.20
2019-03-23T06:08:20.203Z,7.15
2019-03-23T06:09:20.216Z,7.24
2019-03-23T06:10:20.194Z,7.20
2019-03-23T06:11:20.151Z,7.25
2019-03-23T06:12:20.139Z,7.16
2019-03-23T06:13:20.127Z,7.17
2019-03-23T06:14:20.178Z,7.16
2019-03-23T06:15:20.104Z,7.17
2019-03-23T06:16:20.133Z,7.27
2019-03-23T06:17:20.107Z,7.31
2019-03-23T06:18:20.689Z,7.21
2019-03-23T06:19:20.107Z,7.28
2019-03-23T06:20:20.049Z,7.34
2019-03-23T06:21:20.083Z,7.27
2019-03-23T06:22:20.037Z,7.17
2019-03-23T06:23:20.027Z,7.27
2019-03-23T06:24:20.076Z,7.25
2019-03-23T06:25:19.999Z,7.27
2019-03-23T06:26:19.981Z,7.30
2019-03-23T06:27:20.011Z,7.27
2019-03-23T06:28:20.060Z,7.37
2019-03-23T06:29:20.099Z,7.34
2019-03-23T06:30:20.028Z,7.28
2019-03-23T06:31:20.000Z,7.40
2019-03-23T06:32:20.844Z,7.40
2019-03-23T06:33:19.968Z,7.42
2019-03-23T06:34:19.972Z,7.48
2019-03-23T06:35:19.893Z,7.42
2019-03-23T06:36:19.882Z,7.45
2019-03-23T06:37:19.950Z,7.39
2019-03-23T06:38:19.882Z,7.42
2019-03-23T06:39:19.888Z,7.45
2019-03-23T06:40:19.852Z,7.46
2019-03-23T06:41:19.835Z,7.49
2019-03-23T06:42:19.816Z,7.50
2019-03-23T06:43:19.823Z,7.52
2019-03-23T06:44:19.828Z,7.50
2019-03-23T06:45:19.800Z,7.61
2019-03-23T06:46:19.767Z,7.67
2019-03-23T06:47:19.758Z,7.57
2019-03-23T06:48:19.759Z,7.63
2019-03-23T06:49:19.793Z,7.64
2019-03-23T06:50:19.731Z,7.64
2019-03-23T06:51:19.761Z,7.67
2019-03-23T06:52:19.732Z,7.58
2019-03-23T06:53:19.741Z,7.67
2019-03-23T06:54:19.769Z,7.61
2019-03-23T06:55:19.707Z,7.83
2019-03-23T06:56:19.762Z,7.80
2019-03-23T06:57:19.673Z,7.79
2019-03-23T06:58:19.688Z,7.83
2019-03-23T06:59:19.738Z,7.80
2019-03-23T07:00:19.735Z,7.92
2019-03-23T07:01:19.650Z,7.95
2019-03-23T07:02:19.612Z,7.92
2019-03-23T07:03:19.666Z,8.00
2019-03-23T07:04:19.695Z,7.95
2019-03-23T07:05:19.662Z,7.90
2019-03-23T07:06:19.627Z,8.02
2019-03-23T07:07:19.558Z,7.90
2019-03-23T07:08:19.554Z,7.89
2019-03-23T07:09:19.610Z,7.93
2019-03-23T07:10:19.623Z,7.95
2019-03-23T07:11:19.576Z,8.01
2019-03-23T07:12:19.518Z,7.92
2019-03-23T07:13:19.530Z,7.97
2019-03-23T07:14:20.190Z,8.04
2019-03-23T07:15:20.616Z,8.00
2019-03-23T07:16:19.466Z,8.08
2019-03-23T07:17:19.454Z,8.11
2019-03-23T07:18:19.451Z,8.08
2019-03-23T07:19:21.237Z,8.05
2019-03-23T07:20:19.430Z,8.07
2019-03-23T07:21:19.406Z,8.02
2019-03-23T07:22:19.383Z,8.12
2019-03-23T07:23:19.479Z,8.15
2019-03-23T07:24:19.450Z,8.07
2019-03-23T07:25:19.454Z,8.05
2019-03-23T07:26:19.421Z,8.05
2019-03-23T07:27:19.458Z,8.07
2019-03-23T07:28:19.438Z,8.20
2019-03-23T07:29:19.325Z,8.11
2019-03-23T07:30:19.510Z,8.18
2019-03-23T07:31:19.315Z,8.26
2019-03-23T07:32:19.337Z,8.12
2019-03-23T07:33:19.325Z,8.15
2019-03-23T07:34:19.290Z,8.16
2019-03-23T07:35:19.325Z,8.26
2019-03-23T07:36:19.296Z,8.36
2019-03-23T07:37:19.289Z,8.30
2019-03-23T07:38:19.267Z,8.30
2019-03-23T07:39:27.205Z,8.30
2019-03-23T07:40:22.313Z,8.34
2019-03-23T07:41:19.249Z,8.40
2019-03-23T07:42:19.195Z,8.38
2019-03-23T07:43:19.223Z,8.40
2019-03-23T07:44:19.179Z,8.47
2019-03-23T07:45:19.704Z,8.40
2019-03-23T07:46:19.159Z,8.43
2019-03-23T07:47:19.247Z,8.44
2019-03-23T07:48:19.135Z,8.45
2019-03-23T07:49:19.217Z,8.48
2019-03-23T07:50:19.130Z,8.50
2019-03-23T07:51:19.212Z,8.58
2019-03-23T07:52:19.072Z,8.62
2019-03-23T07:53:19.198Z,8.70
2019-03-23T07:54:19.194Z,8.68
2019-03-23T07:55:19.207Z,8.53
2019-03-23T07:56:19.013Z,8.62
2019-03-23T07:57:19.060Z,8.55
2019-03-23T07:58:19.027Z,8.48
2019-03-23T07:59:18.983Z,8.56
2019-03-23T08:00:20.851Z,8.52
2019-03-23T08:01:18.978Z,8.59
2019-03-23T08:02:18.979Z,8.62
2019-03-23T08:03:19.021Z,8.66
2019-03-23T08:04:18.964Z,8.68
2019-03-23T08:05:19.003Z,8.74
2019-03-23T08:06:18.905Z,8.70
2019-03-23T08:07:18.898Z,8.76
2019-03-23T08:08:18.962Z,8.76
2019-03-23T08:09:20.705Z,8.81
2019-03-23T08:10:19.766Z,8.80
2019-03-23T08:11:18.890Z,8.73
2019-03-23T08:12:18.905Z,8.84
2019-03-23T08:13:19.085Z,8.73
2019-03-23T08:14:18.875Z,8.71
2019-03-23T08:15:18.902Z,8.89
2019-03-23T08:16:18.829Z,8.99
2019-03-23T08:17:18.863Z,9.13
2019-03-23T08:18:18.787Z,9.14
2019-03-23T08:19:18.777Z,9.17
2019-03-23T08:20:18.839Z,9.08
2019-03-23T08:21:18.796Z,8.99
2019-03-23T08:22:18.734Z,8.92
2019-03-23T08:23:18.707Z,9.05
2019-03-23T08:24:18.720Z,9.01
2019-03-23T08:25:18.794Z,8.98
2019-03-23T08:26:18.711Z,8.96
2019-03-23T08:27:18.719Z,9.10
2019-03-23T08:28:18.736Z,9.10
2019-03-23T08:29:18.694Z,9.11
2019-03-23T08:30:18.759Z,9.14
2019-03-23T08:31:18.653Z,9.18
2019-03-23T08:32:18.677Z,9.24
2019-03-23T08:33:18.692Z,9.46
2019-03-23T08:34:18.734Z,9.65
2019-03-23T08:35:18.734Z,9.75
2019-03-23T08:36:18.632Z,9.74
2019-03-23T08:37:18.568Z,9.64
2019-03-23T08:38:18.544Z,9.69
2019-03-23T08:39:18.548Z,9.66
2019-03-23T08:40:18.620Z,9.69
2019-03-23T08:41:18.546Z,9.61
2019-03-23T08:42:18.531Z,9.61
2019-03-23T08:43:18.494Z,9.60
2019-03-23T08:44:18.485Z,9.64
2019-03-23T08:45:18.529Z,9.75
2019-03-23T08:46:18.524Z,9.81
2019-03-23T08:47:18.484Z,9.93
2019-03-23T08:48:18.431Z,9.72
2019-03-23T08:49:18.435Z,9.74
2019-03-23T08:50:18.462Z,9.74
2019-03-23T08:51:18.432Z,9.61
2019-03-23T08:52:18.458Z,9.61
2019-03-23T08:53:18.373Z,9.76
2019-03-23T08:54:18.374Z,9.81
2019-03-23T08:55:18.432Z,9.78
2019-03-23T08:56:18.410Z,9.86
2019-03-23T08:57:18.326Z,9.83
2019-03-23T08:58:18.313Z,9.58
2019-03-23T08:59:18.318Z,9.42
2019-03-23T09:00:18.344Z,9.50
2019-03-23T09:01:18.322Z,9.40
2019-03-23T09:02:18.275Z,9.64
2019-03-23T09:03:18.350Z,9.76
2019-03-23T09:04:18.262Z,9.76
2019-03-23T09:05:18.280Z,9.91
2019-03-23T09:06:18.275Z,9.75
2019-03-23T09:07:18.295Z,9.89
2019-03-23T09:08:18.615Z,10.11
2019-03-23T09:09:18.206Z,10.22
2019-03-23T09:10:18.236Z,9.97
2019-03-23T09:11:20.678Z,9.54
2019-03-23T09:12:18.193Z,9.56
2019-03-23T09:13:18.252Z,9.61
2019-03-23T09:14:18.183Z,9.64
2019-03-23T09:15:18.137Z,9.53
2019-03-23T09:16:18.163Z,9.66
2019-03-23T09:17:18.154Z,9.58
2019-03-23T09:18:18.157Z,9.47
2019-03-23T09:19:18.130Z,9.46
2019-03-23T09:20:18.098Z,9.57
2019-03-23T09:21:18.107Z,9.61
2019-03-23T09:22:18.097Z,9.79
2019-03-23T09:23:18.041Z,9.81
2019-03-23T09:24:18.038Z,9.76
2019-03-23T09:25:18.066Z,9.84
2019-03-23T09:26:18.058Z,9.89
2019-03-23T09:27:18.007Z,9.89
2019-03-23T09:28:18.013Z,9.65
2019-03-23T09:29:17.997Z,9.43
2019-03-23T09:30:17.979Z,9.61
2019-03-23T09:31:18.059Z,9.66
2019-03-23T09:32:17.946Z,9.64
2019-03-23T09:33:17.946Z,9.83
2019-03-23T09:34:17.935Z,10.11
2019-03-23T09:35:17.926Z,10.33
2019-03-23T09:36:17.942Z,10.52
2019-03-23T09:37:17.908Z,10.27
2019-03-23T09:38:17.919Z,10.18
2019-03-23T09:39:17.892Z,10.14
2019-03-23T09:40:17.875Z,10.33
2019-03-23T09:41:17.888Z,10.45
2019-03-23T09:42:17.930Z,10.48
2019-03-23T09:43:17.866Z,10.56
2019-03-23T09:44:17.835Z,10.68
2019-03-23T09:45:17.852Z,10.74
2019-03-23T09:46:17.837Z,10.67
2019-03-23T09:47:17.823Z,10.81
2019-03-23T09:48:17.769Z,10.32
2019-03-23T09:49:17.761Z,10.38
2019-03-23T09:50:17.788Z,10.63
2019-03-23T09:51:17.800Z,11.02
2019-03-23T09:52:17.759Z,11.10
2019-03-23T09:53:17.757Z,11.07
2019-03-23T09:54:17.708Z,11.00
2019-03-23T09:55:17.698Z,10.88
2019-03-23T09:56:17.738Z,11.07
2019-03-23T09:57:17.721Z,10.94
2019-03-23T09:58:17.670Z,10.71
2019-03-23T09:59:17.650Z,10.61
2019-03-23T10:00:17.634Z,10.91
2019-03-23T10:01:17.660Z,10.66
2019-03-23T10:02:17.618Z,10.74
2019-03-23T10:03:17.635Z,10.81
2019-03-23T10:04:17.631Z,11.15
2019-03-23T10:05:17.581Z,11.11
2019-03-23T10:06:17.612Z,11.17
2019-03-23T10:07:17.566Z,11.40
2019-03-23T10:08:17.562Z,11.42
2019-03-23T10:09:17.544Z,11.52
2019-03-23T10:10:22.140Z,11.64
2019-03-23T10:11:17.575Z,11.40
2019-03-23T10:12:17.532Z,11.43
2019-03-23T10:13:17.510Z,11.54
2019-03-23T10:14:17.491Z,11.36
2019-03-23T10:15:17.473Z,11.35
2019-03-23T10:16:17.497Z,11.46
2019-03-23T10:17:17.455Z,11.70
2019-03-23T10:18:17.465Z,11.95
2019-03-23T10:19:17.521Z,12.46
2019-03-23T10:20:17.452Z,12.41
2019-03-23T10:21:17.457Z,12.32
2019-03-23T10:22:17.420Z,12.13
2019-03-23T10:23:17.391Z,11.86
2019-03-23T10:24:17.374Z,11.29
2019-03-23T10:25:17.370Z,11.33
2019-03-23T10:26:17.402Z,11.35
2019-03-23T10:27:17.341Z,11.11
2019-03-23T10:28:17.392Z,11.15
2019-03-23T10:29:17.365Z,11.18
2019-03-23T10:30:17.327Z,11.10
2019-03-23T10:31:17.356Z,10.97
2019-03-23T10:32:17.350Z,10.85
2019-03-23T10:33:17.314Z,10.64
2019-03-23T10:34:17.304Z,10.71
2019-03-23T10:35:17.265Z,10.63
2019-03-23T10:36:17.249Z,10.74
2019-03-23T10:37:17.277Z,10.79
2019-03-23T10:38:17.213Z,10.85
2019-03-23T10:39:17.204Z,10.91
2019-03-23T10:40:17.212Z,10.99
2019-03-23T10:41:17.190Z,11.15
2019-03-23T10:42:17.243Z,11.33
2019-03-23T10:43:17.170Z,11.37
2019-03-23T10:44:17.213Z,11.22
2019-03-23T10:45:17.136Z,10.81
2019-03-23T10:46:17.132Z,10.64
2019-03-23T10:47:17.132Z,10.68
2019-03-23T10:48:17.200Z,10.71
2019-03-23T10:49:17.103Z,10.66
2019-03-23T10:50:17.182Z,10.81
2019-03-23T10:51:17.150Z,11.00
2019-03-23T10:52:17.101Z,11.18
2019-03-23T10:53:23.017Z,10.99
2019-03-23T10:54:18.103Z,11.06
2019-03-23T10:55:17.089Z,10.79
2019-03-23T10:56:17.027Z,10.79
2019-03-23T10:57:17.053Z,10.96
2019-03-23T10:58:17.117Z,10.97
2019-03-23T10:59:17.032Z,11.02
2019-03-23T11:00:16.984Z,11.17
2019-03-23T11:01:16.973Z,10.96
2019-03-23T11:02:17.024Z,11.10
2019-03-23T11:03:16.988Z,11.04
2019-03-23T11:04:16.932Z,10.82
2019-03-23T11:05:16.949Z,10.89
2019-03-23T11:06:16.948Z,10.97
2019-03-23T11:07:16.915Z,10.92
2019-03-23T11:08:17.077Z,11.00
2019-03-23T11:09:16.876Z,10.81
2019-03-23T11:10:16.879Z,10.68
2019-03-23T11:11:16.846Z,10.70
2019-03-23T11:12:16.925Z,10.85
2019-03-23T11:13:16.899Z,10.97
2019-03-23T11:14:16.828Z,11.02
2019-03-23T11:15:16.810Z,11.24
2019-03-23T11:16:16.799Z,11.35
2019-03-23T11:17:16.835Z,11.33
2019-03-23T11:18:17.715Z,11.27
2019-03-23T11:19:16.759Z,11.35
2019-03-23T11:20:16.811Z,11.17
2019-03-23T11:21:16.830Z,11.15
2019-03-23T11:22:16.722Z,11.29
2019-03-23T11:23:16.769Z,11.43
2019-03-23T11:24:16.764Z,11.60
2019-03-23T11:25:16.709Z,11.72
2019-03-23T11:26:16.684Z,11.64
2019-03-23T11:27:16.724Z,11.54
2019-03-23T11:28:16.718Z,11.61
2019-03-23T11:29:16.671Z,11.61
2019-03-23T11:30:16.688Z,11.61
2019-03-23T11:31:16.674Z,11.64
2019-03-23T11:32:16.621Z,11.42
2019-03-23T11:33:16.652Z,11.39
2019-03-23T11:34:18.077Z,11.65
2019-03-23T11:35:16.667Z,11.69
2019-03-23T11:36:16.579Z,11.47
2019-03-23T11:37:16.676Z,11.67
2019-03-23T11:38:16.613Z,11.85
2019-03-23T11:39:16.552Z,12.04
2019-03-23T11:40:16.552Z,12.07
2019-03-23T11:41:16.523Z,11.82
2019-03-23T11:42:16.511Z,11.83
2019-03-23T11:43:16.607Z,11.90
2019-03-23T11:44:16.548Z,12.01
2019-03-23T11:45:16.481Z,12.02
2019-03-23T11:46:17.108Z,11.79
2019-03-23T11:47:16.524Z,11.46
2019-03-23T11:48:16.538Z,11.40
2019-03-23T11:49:16.447Z,11.39
2019-03-23T11:50:16.426Z,11.40
2019-03-23T11:51:16.623Z,11.57
2019-03-23T11:52:16.414Z,11.75
2019-03-23T11:53:16.447Z,11.85
2019-03-23T11:54:16.392Z,11.82
2019-03-23T11:55:16.376Z,11.99
2019-03-23T11:56:16.369Z,11.96
2019-03-23T11:57:16.356Z,11.72
2019-03-23T11:58:16.388Z,11.72
2019-03-23T11:59:16.377Z,11.78
2019-03-23T12:00:16.324Z,11.86
2019-03-23T12:01:16.310Z,12.02
2019-03-23T12:02:16.306Z,12.17
2019-03-23T12:03:16.326Z,12.14
2019-03-23T12:04:16.279Z,12.34
2019-03-23T12:05:16.364Z,12.12
2019-03-23T12:06:16.253Z,12.10
2019-03-23T12:07:16.241Z,12.02
2019-03-23T12:08:17.247Z,12.10
2019-03-23T12:09:16.226Z,11.88
2019-03-23T12:10:16.205Z,11.85
2019-03-23T12:11:16.216Z,11.85
2019-03-23T12:12:16.207Z,11.70
2019-03-23T12:13:16.188Z,11.72
2019-03-23T12:14:16.218Z,11.49
2019-03-23T12:15:16.159Z,11.54
2019-03-23T12:16:16.188Z,11.47
2019-03-23T12:17:16.181Z,11.49
2019-03-23T12:18:16.123Z,11.33
2019-03-23T12:19:16.201Z,11.47
2019-03-23T12:20:16.101Z,11.47
2019-03-23T12:21:16.089Z,11.52
2019-03-23T12:22:16.092Z,11.51
2019-03-23T12:23:16.062Z,11.52
2019-03-23T12:24:16.102Z,11.49
2019-03-23T12:25:16.048Z,11.43
2019-03-23T12:26:16.087Z,11.40
2019-03-23T12:27:16.019Z,11.40
2019-03-23T12:28:16.010Z,11.33
2019-03-23T12:29:16.045Z,11.33
2019-03-23T12:30:15.988Z,11.25
2019-03-23T12:31:15.994Z,11.43
2019-03-23T12:32:15.967Z,11.44
2019-03-23T12:33:16.000Z,11.36
2019-03-23T12:34:16.743Z,11.43
2019-03-23T12:35:15.935Z,11.43
2019-03-23T12:36:15.922Z,11.42
2019-03-23T12:37:15.951Z,11.46
2019-03-23T12:38:15.914Z,11.62
2019-03-23T12:39:15.944Z,11.85
2019-03-23T12:40:15.890Z,11.72
2019-03-23T12:41:22.994Z,11.86
2019-03-23T12:42:16.870Z,11.72
2019-03-23T12:43:15.865Z,11.62
2019-03-23T12:44:15.973Z,11.65
2019-03-23T12:45:15.868Z,11.62
2019-03-23T12:46:15.817Z,11.90
2019-03-23T12:47:15.840Z,11.99
2019-03-23T12:48:15.793Z,11.85
2019-03-23T12:49:16.810Z,11.61
2019-03-23T12:50:15.806Z,11.62
2019-03-23T12:51:15.796Z,11.70
2019-03-23T12:52:15.765Z,11.70
2019-03-23T12:53:15.770Z,11.88
2019-03-23T12:54:15.881Z,12.05
2019-03-23T12:55:15.712Z,12.27
2019-03-23T12:56:15.710Z,12.21
2019-03-23T12:57:15.753Z,12.10
2019-03-23T12:58:15.682Z,12.02
2019-03-23T12:59:15.728Z,11.79
2019-03-23T13:00:15.657Z,11.86
2019-03-23T13:01:15.684Z,12.01
2019-03-23T13:02:15.635Z,12.09
2019-03-23T13:03:15.641Z,12.13
2019-03-23T13:04:17.250Z,12.45
2019-03-23T13:05:15.604Z,12.41
2019-03-23T13:06:15.592Z,12.09
2019-03-23T13:07:15.582Z,12.28
2019-03-23T13:08:15.608Z,12.42
2019-03-23T13:09:15.603Z,12.29
2019-03-23T13:10:15.586Z,12.09
2019-03-23T13:11:23.105Z,12.16
2019-03-23T13:12:15.521Z,12.31
2019-03-23T13:13:15.514Z,12.14
2019-03-23T13:14:15.540Z,12.19
2019-03-23T13:15:15.504Z,12.29
2019-03-23T13:16:15.501Z,12.14
2019-03-23T13:17:15.509Z,12.14
2019-03-23T13:18:15.469Z,12.19
2019-03-23T13:19:15.522Z,12.35
2019-03-23T13:20:15.641Z,12.21
2019-03-23T13:21:15.437Z,12.45
2019-03-23T13:22:15.416Z,12.68
2019-03-23T13:23:15.416Z,12.83
2019-03-23T13:24:15.426Z,12.62
2019-03-23T13:25:15.385Z,12.34
2019-03-23T13:26:15.384Z,12.42
2019-03-23T13:27:15.392Z,12.37
2019-03-23T13:28:15.350Z,12.41
2019-03-23T13:29:15.431Z,12.42
2019-03-23T13:30:15.340Z,12.38
2019-03-23T13:31:15.317Z,12.28
2019-03-23T13:32:15.309Z,12.28
2019-03-23T13:33:15.315Z,12.23
2019-03-23T13:34:15.331Z,12.31
2019-03-23T13:35:15.279Z,12.47
2019-03-23T13:36:15.311Z,12.54
2019-03-23T13:37:15.258Z,12.32
2019-03-23T13:38:15.286Z,12.34
2019-03-23T13:39:15.275Z,12.16